sensor_id;sensor_type;location;lat;lon;timestamp;temperature;humidity
38973;DHT22;25333;50.762;4.470;2023-07-22T00:00:53;13.50;99.90
38973;DHT22;25333;50.762;4.470;2023-07-22T00:03:18;13.40;99.90
38973;DHT22;25333;50.762;4.470;2023-07-22T00:05:44;13.40;99.90
38973;DHT22;25333;50.762;4.470;2023-07-22T00:08:09;13.50;99.90
38973;DHT22;25333;50.762;4.470;2023-07-22T00:10:35;13.60;99.90
38973;DHT22;25333;50.762;4.470;2023-07-22T00:13:01;13.60;99.90
38973;DHT22;25333;50.762;4.470;2023-07-22T00:15:26;13.50;99.90
38973;DHT22;25333;50.762;4.470;2023-07-22T00:17:52;13.40;99.90
38973;DHT22;25333;50.762;4.470;2023-07-22T00:20:19;13.40;99.90
38973;DHT22;25333;50.762;4.470;2023-07-22T00:22:45;13.40;99.90
38973;DHT22;25333;50.762;4.470;2023-07-22T00:25:11;13.40;99.90
38973;DHT22;25333;50.762;4.470;2023-07-22T00:27:38;13.30;99.90
38973;DHT22;25333;50.762;4.470;2023-07-22T00:30:08;13.40;99.90
38973;DHT22;25333;50.762;4.470;2023-07-22T00:32:34;13.40;99.90
38973;DHT22;25333;50.762;4.470;2023-07-22T00:35:03;13.30;99.90
38973;DHT22;25333;50.762;4.470;2023-07-22T00:37:30;13.30;99.90
38973;DHT22;25333;50.762;4.470;2023-07-22T00:39:55;13.30;99.90
38973;DHT22;25333;50.762;4.470;2023-07-22T00:42:21;13.30;99.90
38973;DHT22;25333;50.762;4.470;2023-07-22T00:44:46;13.30;99.90
38973;DHT22;25333;50.762;4.470;2023-07-22T00:47:12;13.30;99.90
38973;DHT22;25333;50.762;4.470;2023-07-22T00:49:38;13.20;99.90
38973;DHT22;25333;50.762;4.470;2023-07-22T00:52:04;13.10;99.90
38973;DHT22;25333;50.762;4.470;2023-07-22T00:54:30;13.10;99.90
38973;DHT22;25333;50.762;4.470;2023-07-22T00:56:56;13.10;99.90
38973;DHT22;25333;50.762;4.470;2023-07-22T00:59:22;13.10;99.90
38973;DHT22;25333;50.762;4.470;2023-07-22T01:01:48;13.10;99.90
38973;DHT22;25333;50.762;4.470;2023-07-22T01:04:15;13.10;99.90
38973;DHT22;25333;50.762;4.470;2023-07-22T01:06:42;13.00;99.90
38973;DHT22;25333;50.762;4.470;2023-07-22T01:09:09;13.00;99.90
38973;DHT22;25333;50.762;4.470;2023-07-22T01:11:35;13.10;99.90
38973;DHT22;25333;50.762;4.470;2023-07-22T01:14:00;13.10;99.90
38973;DHT22;25333;50.762;4.470;2023-07-22T01:16:27;13.00;99.90
38973;DHT22;25333;50.762;4.470;2023-07-22T01:18:54;12.90;99.90
38973;DHT22;25333;50.762;4.470;2023-07-22T01:21:22;12.90;99.90
38973;DHT22;25333;50.762;4.470;2023-07-22T01:23:48;12.80;99.90
38973;DHT22;25333;50.762;4.470;2023-07-22T01:26:14;12.80;99.90
38973;DHT22;25333;50.762;4.470;2023-07-22T01:28:40;12.70;99.90
38973;DHT22;25333;50.762;4.470;2023-07-22T01:31:06;12.70;99.90
38973;DHT22;25333;50.762;4.470;2023-07-22T01:33:32;12.70;99.90
38973;DHT22;25333;50.762;4.470;2023-07-22T01:35:59;12.80;99.90
38973;DHT22;25333;50.762;4.470;2023-07-22T01:38:24;12.90;99.90
38973;DHT22;25333;50.762;4.470;2023-07-22T01:40:50;12.90;99.90
38973;DHT22;25333;50.762;4.470;2023-07-22T01:43:15;12.90;99.90
38973;DHT22;25333;50.762;4.470;2023-07-22T01:45:41;12.90;99.90
38973;DHT22;25333;50.762;4.470;2023-07-22T01:48:08;13.00;99.90
38973;DHT22;25333;50.762;4.470;2023-07-22T01:50:33;13.10;99.90
38973;DHT22;25333;50.762;4.470;2023-07-22T01:52:59;13.10;99.90
38973;DHT22;25333;50.762;4.470;2023-07-22T01:55:24;13.10;99.90
38973;DHT22;25333;50.762;4.470;2023-07-22T01:57:51;13.00;99.90
38973;DHT22;25333;50.762;4.470;2023-07-22T02:00:16;13.10;99.90
38973;DHT22;25333;50.762;4.470;2023-07-22T02:02:42;13.10;99.90
38973;DHT22;25333;50.762;4.470;2023-07-22T02:05:08;13.10;99.90
38973;DHT22;25333;50.762;4.470;2023-07-22T02:07:35;13.10;99.90
38973;DHT22;25333;50.762;4.470;2023-07-22T02:10:01;13.10;99.90
38973;DHT22;25333;50.762;4.470;2023-07-22T02:12:27;13.20;99.90
38973;DHT22;25333;50.762;4.470;2023-07-22T02:14:52;13.20;99.90
38973;DHT22;25333;50.762;4.470;2023-07-22T02:17:18;13.20;99.90
38973;DHT22;25333;50.762;4.470;2023-07-22T02:19:43;13.10;99.90
38973;DHT22;25333;50.762;4.470;2023-07-22T02:22:09;13.20;99.90
38973;DHT22;25333;50.762;4.470;2023-07-22T02:24:35;13.20;99.90
38973;DHT22;25333;50.762;4.470;2023-07-22T02:27:00;13.20;99.90
38973;DHT22;25333;50.762;4.470;2023-07-22T02:29:26;13.20;99.90
38973;DHT22;25333;50.762;4.470;2023-07-22T02:31:52;13.20;99.90
38973;DHT22;25333;50.762;4.470;2023-07-22T02:34:17;13.30;99.90
38973;DHT22;25333;50.762;4.470;2023-07-22T02:36:43;13.30;99.90
38973;DHT22;25333;50.762;4.470;2023-07-22T02:39:08;13.30;99.90
38973;DHT22;25333;50.762;4.470;2023-07-22T02:41:36;13.40;99.90
38973;DHT22;25333;50.762;4.470;2023-07-22T02:44:02;13.30;99.90
38973;DHT22;25333;50.762;4.470;2023-07-22T02:46:28;13.30;99.90
38973;DHT22;25333;50.762;4.470;2023-07-22T02:48:54;13.40;99.90
38973;DHT22;25333;50.762;4.470;2023-07-22T02:51:20;13.40;99.90
38973;DHT22;25333;50.762;4.470;2023-07-22T02:53:46;13.30;99.90
38973;DHT22;25333;50.762;4.470;2023-07-22T02:56:12;13.20;99.90
38973;DHT22;25333;50.762;4.470;2023-07-22T02:58:39;13.10;99.90
38973;DHT22;25333;50.762;4.470;2023-07-22T03:01:07;13.10;99.90
38973;DHT22;25333;50.762;4.470;2023-07-22T03:03:34;13.10;99.90
38973;DHT22;25333;50.762;4.470;2023-07-22T03:06:03;13.00;99.90
38973;DHT22;25333;50.762;4.470;2023-07-22T03:08:29;12.90;99.90
38973;DHT22;25333;50.762;4.470;2023-07-22T03:10:55;12.90;99.90
38973;DHT22;25333;50.762;4.470;2023-07-22T03:13:21;12.80;99.90
38973;DHT22;25333;50.762;4.470;2023-07-22T03:15:47;12.80;99.90
38973;DHT22;25333;50.762;4.470;2023-07-22T03:18:13;12.90;99.90
38973;DHT22;25333;50.762;4.470;2023-07-22T03:20:39;13.00;99.90
38973;DHT22;25333;50.762;4.470;2023-07-22T03:23:05;13.00;99.90
38973;DHT22;25333;50.762;4.470;2023-07-22T03:25:32;13.00;99.90
38973;DHT22;25333;50.762;4.470;2023-07-22T03:28:05;12.90;99.90
38973;DHT22;25333;50.762;4.470;2023-07-22T03:30:31;13.00;99.90
38973;DHT22;25333;50.762;4.470;2023-07-22T03:32:57;12.90;99.90
38973;DHT22;25333;50.762;4.470;2023-07-22T03:35:23;12.90;99.90
38973;DHT22;25333;50.762;4.470;2023-07-22T03:37:48;12.80;99.90
38973;DHT22;25333;50.762;4.470;2023-07-22T03:40:14;12.90;99.90
38973;DHT22;25333;50.762;4.470;2023-07-22T03:42:49;13.00;99.90
38973;DHT22;25333;50.762;4.470;2023-07-22T03:45:15;13.10;99.90
38973;DHT22;25333;50.762;4.470;2023-07-22T03:47:40;13.20;99.90
38973;DHT22;25333;50.762;4.470;2023-07-22T03:50:07;13.30;99.90
38973;DHT22;25333;50.762;4.470;2023-07-22T03:52:33;13.40;99.90
38973;DHT22;25333;50.762;4.470;2023-07-22T03:54:58;13.50;99.90
38973;DHT22;25333;50.762;4.470;2023-07-22T03:57:27;13.60;99.90
38973;DHT22;25333;50.762;4.470;2023-07-22T03:59:57;13.60;99.90
38973;DHT22;25333;50.762;4.470;2023-07-22T04:02:23;13.70;99.90
38973;DHT22;25333;50.762;4.470;2023-07-22T04:04:53;13.70;99.90
38973;DHT22;25333;50.762;4.470;2023-07-22T04:07:19;13.70;99.90
38973;DHT22;25333;50.762;4.470;2023-07-22T04:09:45;13.80;99.90
38973;DHT22;25333;50.762;4.470;2023-07-22T04:12:11;13.80;99.90
38973;DHT22;25333;50.762;4.470;2023-07-22T04:14:37;13.80;99.90
38973;DHT22;25333;50.762;4.470;2023-07-22T04:17:03;13.80;99.90
38973;DHT22;25333;50.762;4.470;2023-07-22T04:19:32;13.80;99.90
38973;DHT22;25333;50.762;4.470;2023-07-22T04:21:57;13.90;99.90
38973;DHT22;25333;50.762;4.470;2023-07-22T04:24:23;14.00;99.90
38973;DHT22;25333;50.762;4.470;2023-07-22T04:26:50;14.00;99.90
38973;DHT22;25333;50.762;4.470;2023-07-22T04:29:16;14.00;99.90
38973;DHT22;25333;50.762;4.470;2023-07-22T04:31:41;14.00;99.90
38973;DHT22;25333;50.762;4.470;2023-07-22T04:34:07;14.00;99.90
38973;DHT22;25333;50.762;4.470;2023-07-22T04:36:33;14.00;99.90
38973;DHT22;25333;50.762;4.470;2023-07-22T04:38:59;14.00;99.90
38973;DHT22;25333;50.762;4.470;2023-07-22T04:41:24;14.00;99.90
38973;DHT22;25333;50.762;4.470;2023-07-22T04:43:50;14.00;99.90
38973;DHT22;25333;50.762;4.470;2023-07-22T04:46:17;14.00;99.90
38973;DHT22;25333;50.762;4.470;2023-07-22T04:48:42;14.10;99.90
38973;DHT22;25333;50.762;4.470;2023-07-22T04:51:08;14.10;99.90
38973;DHT22;25333;50.762;4.470;2023-07-22T04:53:34;14.10;99.90
38973;DHT22;25333;50.762;4.470;2023-07-22T04:55:59;14.10;99.90
38973;DHT22;25333;50.762;4.470;2023-07-22T04:58:25;14.10;99.90
38973;DHT22;25333;50.762;4.470;2023-07-22T05:00:51;14.20;99.90
38973;DHT22;25333;50.762;4.470;2023-07-22T05:03:17;14.20;99.90
38973;DHT22;25333;50.762;4.470;2023-07-22T05:05:43;14.20;99.90
38973;DHT22;25333;50.762;4.470;2023-07-22T05:08:09;14.20;99.90
38973;DHT22;25333;50.762;4.470;2023-07-22T05:10:36;14.20;99.90
38973;DHT22;25333;50.762;4.470;2023-07-22T05:13:02;14.20;99.90
38973;DHT22;25333;50.762;4.470;2023-07-22T05:15:28;14.30;99.90
38973;DHT22;25333;50.762;4.470;2023-07-22T05:17:53;14.30;99.90
38973;DHT22;25333;50.762;4.470;2023-07-22T05:20:19;14.30;99.90
38973;DHT22;25333;50.762;4.470;2023-07-22T05:22:44;14.20;99.90
38973;DHT22;25333;50.762;4.470;2023-07-22T05:25:10;14.30;99.90
38973;DHT22;25333;50.762;4.470;2023-07-22T05:27:36;14.40;99.90
38973;DHT22;25333;50.762;4.470;2023-07-22T05:30:02;14.40;99.90
38973;DHT22;25333;50.762;4.470;2023-07-22T05:32:28;14.50;99.90
38973;DHT22;25333;50.762;4.470;2023-07-22T05:34:55;14.40;99.90
38973;DHT22;25333;50.762;4.470;2023-07-22T05:37:22;14.50;99.90
38973;DHT22;25333;50.762;4.470;2023-07-22T05:39:48;14.60;99.90
38973;DHT22;25333;50.762;4.470;2023-07-22T05:42:13;14.50;99.90
38973;DHT22;25333;50.762;4.470;2023-07-22T05:44:39;14.40;99.90
38973;DHT22;25333;50.762;4.470;2023-07-22T05:47:05;14.50;99.90
38973;DHT22;25333;50.762;4.470;2023-07-22T05:49:30;14.60;99.90
38973;DHT22;25333;50.762;4.470;2023-07-22T05:51:56;14.70;99.90
38973;DHT22;25333;50.762;4.470;2023-07-22T05:54:22;14.80;99.90
38973;DHT22;25333;50.762;4.470;2023-07-22T05:56:47;14.80;99.90
38973;DHT22;25333;50.762;4.470;2023-07-22T05:59:13;15.00;99.90
38973;DHT22;25333;50.762;4.470;2023-07-22T06:01:39;15.00;99.90
38973;DHT22;25333;50.762;4.470;2023-07-22T06:04:05;15.00;99.90
38973;DHT22;25333;50.762;4.470;2023-07-22T06:06:31;14.90;99.90
38973;DHT22;25333;50.762;4.470;2023-07-22T06:08:57;14.90;99.90
38973;DHT22;25333;50.762;4.470;2023-07-22T06:11:22;15.00;99.90
38973;DHT22;25333;50.762;4.470;2023-07-22T06:13:48;15.10;99.90
38973;DHT22;25333;50.762;4.470;2023-07-22T06:16:14;15.20;99.90
38973;DHT22;25333;50.762;4.470;2023-07-22T06:18:39;15.30;99.90
38973;DHT22;25333;50.762;4.470;2023-07-22T06:21:05;15.20;99.90
38973;DHT22;25333;50.762;4.470;2023-07-22T06:23:31;15.30;99.90
38973;DHT22;25333;50.762;4.470;2023-07-22T06:25:56;15.40;99.90
38973;DHT22;25333;50.762;4.470;2023-07-22T06:28:22;15.40;99.90
38973;DHT22;25333;50.762;4.470;2023-07-22T06:30:48;15.30;99.90
38973;DHT22;25333;50.762;4.470;2023-07-22T06:33:13;15.20;99.90
38973;DHT22;25333;50.762;4.470;2023-07-22T06:35:39;15.10;99.90
38973;DHT22;25333;50.762;4.470;2023-07-22T06:38:04;15.00;99.90
38973;DHT22;25333;50.762;4.470;2023-07-22T06:40:30;15.10;99.90
38973;DHT22;25333;50.762;4.470;2023-07-22T06:42:56;15.20;99.90
38973;DHT22;25333;50.762;4.470;2023-07-22T06:45:21;15.20;99.90
38973;DHT22;25333;50.762;4.470;2023-07-22T06:47:47;15.30;99.90
38973;DHT22;25333;50.762;4.470;2023-07-22T06:50:12;15.40;99.90
38973;DHT22;25333;50.762;4.470;2023-07-22T06:52:38;15.50;99.90
38973;DHT22;25333;50.762;4.470;2023-07-22T06:55:04;15.60;99.90
38973;DHT22;25333;50.762;4.470;2023-07-22T06:57:30;15.60;99.90
38973;DHT22;25333;50.762;4.470;2023-07-22T06:59:57;15.60;99.90
38973;DHT22;25333;50.762;4.470;2023-07-22T07:02:22;15.60;99.90
38973;DHT22;25333;50.762;4.470;2023-07-22T07:04:48;15.60;99.90
38973;DHT22;25333;50.762;4.470;2023-07-22T07:07:15;15.70;99.90
38973;DHT22;25333;50.762;4.470;2023-07-22T07:09:41;15.80;99.90
38973;DHT22;25333;50.762;4.470;2023-07-22T07:12:08;15.90;99.90
38973;DHT22;25333;50.762;4.470;2023-07-22T07:14:34;15.90;99.90
38973;DHT22;25333;50.762;4.470;2023-07-22T07:17:01;16.00;99.90
38973;DHT22;25333;50.762;4.470;2023-07-22T07:19:27;16.10;99.90
38973;DHT22;25333;50.762;4.470;2023-07-22T07:21:53;16.20;99.90
38973;DHT22;25333;50.762;4.470;2023-07-22T07:24:18;16.20;99.90
38973;DHT22;25333;50.762;4.470;2023-07-22T07:26:44;16.10;99.90
38973;DHT22;25333;50.762;4.470;2023-07-22T07:29:10;16.20;99.90
38973;DHT22;25333;50.762;4.470;2023-07-22T07:31:36;16.20;99.90
38973;DHT22;25333;50.762;4.470;2023-07-22T07:34:02;16.30;99.90
38973;DHT22;25333;50.762;4.470;2023-07-22T07:36:27;16.40;99.90
38973;DHT22;25333;50.762;4.470;2023-07-22T07:38:53;16.50;99.90
38973;DHT22;25333;50.762;4.470;2023-07-22T07:41:19;16.70;99.90
38973;DHT22;25333;50.762;4.470;2023-07-22T07:43:44;16.50;99.90
38973;DHT22;25333;50.762;4.470;2023-07-22T07:46:24;16.70;99.90
38973;DHT22;25333;50.762;4.470;2023-07-22T07:48:52;16.80;99.90
38973;DHT22;25333;50.762;4.470;2023-07-22T07:51:19;17.00;99.90
38973;DHT22;25333;50.762;4.470;2023-07-22T07:53:46;17.10;99.90
38973;DHT22;25333;50.762;4.470;2023-07-22T07:56:16;17.10;99.90
38973;DHT22;25333;50.762;4.470;2023-07-22T07:58:43;17.10;99.90
38973;DHT22;25333;50.762;4.470;2023-07-22T08:01:09;17.20;99.90
38973;DHT22;25333;50.762;4.470;2023-07-22T08:03:35;17.20;99.90
38973;DHT22;25333;50.762;4.470;2023-07-22T08:06:01;17.10;99.90
38973;DHT22;25333;50.762;4.470;2023-07-22T08:08:27;17.10;99.90
38973;DHT22;25333;50.762;4.470;2023-07-22T08:11:10;17.30;99.90
38973;DHT22;25333;50.762;4.470;2023-07-22T08:13:37;17.40;99.90
38973;DHT22;25333;50.762;4.470;2023-07-22T08:16:07;17.40;99.90
38973;DHT22;25333;50.762;4.470;2023-07-22T08:18:33;17.40;99.90
38973;DHT22;25333;50.762;4.470;2023-07-22T08:20:59;17.50;99.90
38973;DHT22;25333;50.762;4.470;2023-07-22T08:23:25;17.50;99.90
38973;DHT22;25333;50.762;4.470;2023-07-22T08:25:51;17.40;99.90
38973;DHT22;25333;50.762;4.470;2023-07-22T08:28:17;17.40;99.90
38973;DHT22;25333;50.762;4.470;2023-07-22T08:30:43;17.30;99.90
38973;DHT22;25333;50.762;4.470;2023-07-22T08:33:10;17.30;99.90
38973;DHT22;25333;50.762;4.470;2023-07-22T08:35:39;17.30;99.90
38973;DHT22;25333;50.762;4.470;2023-07-22T08:38:05;17.50;99.90
38973;DHT22;25333;50.762;4.470;2023-07-22T08:40:38;17.40;99.90
38973;DHT22;25333;50.762;4.470;2023-07-22T08:43:09;17.60;99.90
38973;DHT22;25333;50.762;4.470;2023-07-22T08:45:37;17.80;99.90
38973;DHT22;25333;50.762;4.470;2023-07-22T08:48:04;17.90;99.90
38973;DHT22;25333;50.762;4.470;2023-07-22T08:53:12;18.40;99.90
38973;DHT22;25333;50.762;4.470;2023-07-22T08:55:38;18.50;99.90
38973;DHT22;25333;50.762;4.470;2023-07-22T08:58:09;18.40;99.90
38973;DHT22;25333;50.762;4.470;2023-07-22T09:00:36;18.30;99.90
38973;DHT22;25333;50.762;4.470;2023-07-22T09:03:02;18.40;99.90
38973;DHT22;25333;50.762;4.470;2023-07-22T09:05:29;18.50;99.90
38973;DHT22;25333;50.762;4.470;2023-07-22T09:07:56;18.50;99.80
38973;DHT22;25333;50.762;4.470;2023-07-22T09:10:23;18.50;99.50
38973;DHT22;25333;50.762;4.470;2023-07-22T09:12:51;18.60;99.60
38973;DHT22;25333;50.762;4.470;2023-07-22T09:15:18;18.70;98.90
38973;DHT22;25333;50.762;4.470;2023-07-22T09:17:44;18.80;98.70
38973;DHT22;25333;50.762;4.470;2023-07-22T09:20:12;18.90;98.70
38973;DHT22;25333;50.762;4.470;2023-07-22T09:22:45;18.90;99.40
38973;DHT22;25333;50.762;4.470;2023-07-22T09:25:16;19.00;98.60
38973;DHT22;25333;50.762;4.470;2023-07-22T09:27:42;18.90;97.60
38973;DHT22;25333;50.762;4.470;2023-07-22T09:30:28;19.00;98.60
38973;DHT22;25333;50.762;4.470;2023-07-22T09:32:59;19.40;96.80
38973;DHT22;25333;50.762;4.470;2023-07-22T09:38:06;19.00;96.50
38973;DHT22;25333;50.762;4.470;2023-07-22T09:40:32;19.10;96.90
38973;DHT22;25333;50.762;4.470;2023-07-22T09:43:02;19.20;97.40
38973;DHT22;25333;50.762;4.470;2023-07-22T09:45:30;19.30;96.00
38973;DHT22;25333;50.762;4.470;2023-07-22T09:47:57;19.40;96.60
38973;DHT22;25333;50.762;4.470;2023-07-22T09:50:24;19.50;95.60
38973;DHT22;25333;50.762;4.470;2023-07-22T09:52:53;19.30;95.30
38973;DHT22;25333;50.762;4.470;2023-07-22T09:55:21;19.40;96.00
38973;DHT22;25333;50.762;4.470;2023-07-22T09:57:52;19.50;96.50
38973;DHT22;25333;50.762;4.470;2023-07-22T10:00:19;19.40;96.10
38973;DHT22;25333;50.762;4.470;2023-07-22T10:02:46;19.60;96.60
38973;DHT22;25333;50.762;4.470;2023-07-22T10:05:16;19.80;96.20
38973;DHT22;25333;50.762;4.470;2023-07-22T10:07:45;20.10;94.60
38973;DHT22;25333;50.762;4.470;2023-07-22T10:10:12;20.20;94.80
38973;DHT22;25333;50.762;4.470;2023-07-22T10:12:40;20.40;94.00
38973;DHT22;25333;50.762;4.470;2023-07-22T10:15:08;20.50;93.70
38973;DHT22;25333;50.762;4.470;2023-07-22T10:17:34;20.60;93.50
38973;DHT22;25333;50.762;4.470;2023-07-22T10:20:02;20.60;92.20
38973;DHT22;25333;50.762;4.470;2023-07-22T10:22:34;20.60;92.70
38973;DHT22;25333;50.762;4.470;2023-07-22T10:25:03;20.50;92.50
38973;DHT22;25333;50.762;4.470;2023-07-22T10:27:30;20.50;92.20
38973;DHT22;25333;50.762;4.470;2023-07-22T10:29:56;20.80;92.60
38973;DHT22;25333;50.762;4.470;2023-07-22T10:32:22;21.00;91.70
38973;DHT22;25333;50.762;4.470;2023-07-22T10:34:48;21.10;92.30
38973;DHT22;25333;50.762;4.470;2023-07-22T10:37:13;21.30;91.40
38973;DHT22;25333;50.762;4.470;2023-07-22T10:39:42;21.60;91.30
38973;DHT22;25333;50.762;4.470;2023-07-22T10:42:08;21.60;90.30
38973;DHT22;25333;50.762;4.470;2023-07-22T10:44:38;21.70;91.20
38973;DHT22;25333;50.762;4.470;2023-07-22T10:47:07;21.80;90.60
38973;DHT22;25333;50.762;4.470;2023-07-22T10:50:06;21.60;91.20
38973;DHT22;25333;50.762;4.470;2023-07-22T10:52:44;21.60;90.30
38973;DHT22;25333;50.762;4.470;2023-07-22T10:55:19;21.40;91.20
38973;DHT22;25333;50.762;4.470;2023-07-22T10:58:03;21.60;91.00
38973;DHT22;25333;50.762;4.470;2023-07-22T11:00:30;21.80;90.80
38973;DHT22;25333;50.762;4.470;2023-07-22T11:03:10;21.50;91.20
38973;DHT22;25333;50.762;4.470;2023-07-22T11:05:55;21.70;91.00
38973;DHT22;25333;50.762;4.470;2023-07-22T11:08:40;21.80;91.00
38973;DHT22;25333;50.762;4.470;2023-07-22T11:11:09;21.90;90.50
38973;DHT22;25333;50.762;4.470;2023-07-22T11:13:40;21.90;90.70
38973;DHT22;25333;50.762;4.470;2023-07-22T11:16:10;21.90;90.80
38973;DHT22;25333;50.762;4.470;2023-07-22T11:18:40;21.80;91.10
38973;DHT22;25333;50.762;4.470;2023-07-22T11:21:12;22.00;91.60
38973;DHT22;25333;50.762;4.470;2023-07-22T11:23:38;22.20;91.00
38973;DHT22;25333;50.762;4.470;2023-07-22T11:26:09;22.20;91.00
38973;DHT22;25333;50.762;4.470;2023-07-22T11:28:38;22.50;90.90
38973;DHT22;25333;50.762;4.470;2023-07-22T11:31:07;22.50;90.60
38973;DHT22;25333;50.762;4.470;2023-07-22T11:33:41;22.50;90.30
38973;DHT22;25333;50.762;4.470;2023-07-22T11:36:09;22.50;90.80
38973;DHT22;25333;50.762;4.470;2023-07-22T11:39:27;22.60;90.20
38973;DHT22;25333;50.762;4.470;2023-07-22T11:41:58;22.60;90.70
38973;DHT22;25333;50.762;4.470;2023-07-22T11:44:27;22.40;89.80
38973;DHT22;25333;50.762;4.470;2023-07-22T11:47:18;22.30;89.60
38973;DHT22;25333;50.762;4.470;2023-07-22T11:49:47;22.40;90.50
38973;DHT22;25333;50.762;4.470;2023-07-22T11:58:08;21.80;90.60
38973;DHT22;25333;50.762;4.470;2023-07-22T12:01:10;21.80;89.20
38973;DHT22;25333;50.762;4.470;2023-07-22T12:04:08;21.60;90.50
38973;DHT22;25333;50.762;4.470;2023-07-22T12:07:05;21.60;91.10
38973;DHT22;25333;50.762;4.470;2023-07-22T12:10:12;21.60;90.80
38973;DHT22;25333;50.762;4.470;2023-07-22T12:12:47;21.60;90.30
38973;DHT22;25333;50.762;4.470;2023-07-22T12:15:27;21.80;88.70
38973;DHT22;25333;50.762;4.470;2023-07-22T12:18:01;21.70;89.90
38973;DHT22;25333;50.762;4.470;2023-07-22T12:20:50;21.60;90.80
38973;DHT22;25333;50.762;4.470;2023-07-22T12:26:13;21.50;90.60
38973;DHT22;25333;50.762;4.470;2023-07-22T12:29:05;21.50;90.00
38973;DHT22;25333;50.762;4.470;2023-07-22T12:31:35;21.70;90.00
38973;DHT22;25333;50.762;4.470;2023-07-22T12:34:14;21.90;90.40
38973;DHT22;25333;50.762;4.470;2023-07-22T12:36:40;22.30;89.70
38973;DHT22;25333;50.762;4.470;2023-07-22T12:39:06;22.50;89.40
38973;DHT22;25333;50.762;4.470;2023-07-22T12:41:32;22.30;88.50
38973;DHT22;25333;50.762;4.470;2023-07-22T12:43:58;22.30;89.40
38973;DHT22;25333;50.762;4.470;2023-07-22T12:46:23;22.40;86.40
38973;DHT22;25333;50.762;4.470;2023-07-22T12:48:49;22.40;87.90
38973;DHT22;25333;50.762;4.470;2023-07-22T12:51:15;22.40;87.70
38973;DHT22;25333;50.762;4.470;2023-07-22T12:53:44;22.20;87.60
38973;DHT22;25333;50.762;4.470;2023-07-22T12:56:09;22.40;88.00
38973;DHT22;25333;50.762;4.470;2023-07-22T12:58:35;22.40;87.70
38973;DHT22;25333;50.762;4.470;2023-07-22T13:01:00;22.20;87.10
38973;DHT22;25333;50.762;4.470;2023-07-22T13:03:29;22.10;86.50
38973;DHT22;25333;50.762;4.470;2023-07-22T13:05:55;21.80;86.80
38973;DHT22;25333;50.762;4.470;2023-07-22T13:08:21;21.70;88.80
38973;DHT22;25333;50.762;4.470;2023-07-22T13:10:47;21.90;88.80
38973;DHT22;25333;50.762;4.470;2023-07-22T13:13:15;22.10;85.70
38973;DHT22;25333;50.762;4.470;2023-07-22T13:15:41;22.40;87.30
38973;DHT22;25333;50.762;4.470;2023-07-22T13:18:09;22.40;86.90
38973;DHT22;25333;50.762;4.470;2023-07-22T13:20:38;22.50;84.20
38973;DHT22;25333;50.762;4.470;2023-07-22T13:23:04;22.50;86.00
38973;DHT22;25333;50.762;4.470;2023-07-22T13:25:29;22.60;84.90
38973;DHT22;25333;50.762;4.470;2023-07-22T13:27:56;22.50;86.40
38973;DHT22;25333;50.762;4.470;2023-07-22T13:30:32;22.40;83.80
38973;DHT22;25333;50.762;4.470;2023-07-22T13:33:20;22.30;85.40
38973;DHT22;25333;50.762;4.470;2023-07-22T13:35:45;22.10;85.90
38973;DHT22;25333;50.762;4.470;2023-07-22T13:38:17;22.10;85.70
38973;DHT22;25333;50.762;4.470;2023-07-22T13:40:43;21.80;85.30
38973;DHT22;25333;50.762;4.470;2023-07-22T13:43:09;21.80;87.90
38973;DHT22;25333;50.762;4.470;2023-07-22T13:45:36;21.90;86.00
38973;DHT22;25333;50.762;4.470;2023-07-22T13:48:01;21.90;85.60
38973;DHT22;25333;50.762;4.470;2023-07-22T13:50:27;21.90;87.00
38973;DHT22;25333;50.762;4.470;2023-07-22T13:52:52;21.90;84.70
38973;DHT22;25333;50.762;4.470;2023-07-22T13:55:18;21.80;86.60
38973;DHT22;25333;50.762;4.470;2023-07-22T13:57:44;21.60;85.10
38973;DHT22;25333;50.762;4.470;2023-07-22T14:00:10;21.40;87.20
38973;DHT22;25333;50.762;4.470;2023-07-22T14:02:37;21.40;87.40
38973;DHT22;25333;50.762;4.470;2023-07-22T14:05:06;21.10;86.00
38973;DHT22;25333;50.762;4.470;2023-07-22T14:07:33;21.10;87.90
38973;DHT22;25333;50.762;4.470;2023-07-22T14:09:59;21.10;87.70
38973;DHT22;25333;50.762;4.470;2023-07-22T14:12:25;21.10;87.90
38973;DHT22;25333;50.762;4.470;2023-07-22T14:14:50;20.90;87.10
38973;DHT22;25333;50.762;4.470;2023-07-22T14:17:16;20.80;89.00
38973;DHT22;25333;50.762;4.470;2023-07-22T14:19:41;20.70;88.10
38973;DHT22;25333;50.762;4.470;2023-07-22T14:22:07;20.70;89.70
38973;DHT22;25333;50.762;4.470;2023-07-22T14:24:34;20.70;89.10
38973;DHT22;25333;50.762;4.470;2023-07-22T14:27:02;20.60;89.90
38973;DHT22;25333;50.762;4.470;2023-07-22T14:29:28;20.70;89.80
38973;DHT22;25333;50.762;4.470;2023-07-22T14:31:56;20.80;90.00
38973;DHT22;25333;50.762;4.470;2023-07-22T14:34:22;20.70;88.80
38973;DHT22;25333;50.762;4.470;2023-07-22T14:36:48;20.80;90.00
38973;DHT22;25333;50.762;4.470;2023-07-22T14:39:18;20.90;90.20
38973;DHT22;25333;50.762;4.470;2023-07-22T14:41:44;21.10;90.10
38973;DHT22;25333;50.762;4.470;2023-07-22T14:44:10;21.20;89.90
38973;DHT22;25333;50.762;4.470;2023-07-22T14:46:35;21.30;89.50
38973;DHT22;25333;50.762;4.470;2023-07-22T14:49:01;21.40;89.80
38973;DHT22;25333;50.762;4.470;2023-07-22T14:51:27;21.30;88.70
38973;DHT22;25333;50.762;4.470;2023-07-22T14:53:53;21.10;88.80
38973;DHT22;25333;50.762;4.470;2023-07-22T14:56:19;21.20;90.00
38973;DHT22;25333;50.762;4.470;2023-07-22T14:58:45;21.20;89.20
38973;DHT22;25333;50.762;4.470;2023-07-22T15:01:17;21.20;90.70
38973;DHT22;25333;50.762;4.470;2023-07-22T15:03:43;21.40;90.50
38973;DHT22;25333;50.762;4.470;2023-07-22T15:06:11;21.30;90.10
38973;DHT22;25333;50.762;4.470;2023-07-22T15:08:36;21.30;90.00
38973;DHT22;25333;50.762;4.470;2023-07-22T15:11:02;21.30;89.90
38973;DHT22;25333;50.762;4.470;2023-07-22T15:13:28;21.30;90.30
38973;DHT22;25333;50.762;4.470;2023-07-22T15:15:53;21.20;90.40
38973;DHT22;25333;50.762;4.470;2023-07-22T15:18:22;21.10;90.00
38973;DHT22;25333;50.762;4.470;2023-07-22T15:20:52;21.20;90.80
38973;DHT22;25333;50.762;4.470;2023-07-22T15:23:18;21.10;90.00
38973;DHT22;25333;50.762;4.470;2023-07-22T15:25:44;21.00;90.50
38973;DHT22;25333;50.762;4.470;2023-07-22T15:28:17;21.10;91.20
38973;DHT22;25333;50.762;4.470;2023-07-22T15:30:46;21.00;91.00
38973;DHT22;25333;50.762;4.470;2023-07-22T15:33:12;21.00;91.40
38973;DHT22;25333;50.762;4.470;2023-07-22T15:35:38;21.00;90.20
38973;DHT22;25333;50.762;4.470;2023-07-22T15:38:03;20.90;90.50
38973;DHT22;25333;50.762;4.470;2023-07-22T15:40:34;20.90;91.10
38973;DHT22;25333;50.762;4.470;2023-07-22T15:43:00;20.70;90.60
38973;DHT22;25333;50.762;4.470;2023-07-22T15:45:28;20.60;91.10
38973;DHT22;25333;50.762;4.470;2023-07-22T15:47:54;20.70;91.70